createdAt,value
2022-07-28T00:02:05.032Z,60.90
2022-07-28T00:04:34.326Z,61.20
2022-07-28T00:07:03.328Z,61.30
2022-07-28T00:09:33.386Z,61.30
2022-07-28T00:12:02.192Z,61.50
2022-07-28T00:14:31.328Z,61.60
2022-07-28T00:17:00.601Z,61.80
2022-07-28T00:19:29.329Z,61.70
2022-07-28T00:21:57.971Z,62.10
2022-07-28T00:24:26.651Z,62.00
2022-07-28T00:26:56.642Z,62.10
2022-07-28T00:29:25.340Z,62.10
2022-07-28T00:32:13.991Z,62.00
2022-07-28T00:34:42.978Z,62.00
2022-07-28T00:37:14.550Z,62.10
2022-07-28T00:39:44.016Z,62.40
2022-07-28T00:42:14.105Z,62.50
2022-07-28T00:44:42.735Z,62.30
2022-07-28T00:47:12.045Z,62.50
2022-07-28T00:49:41.132Z,62.40
2022-07-28T00:52:11.203Z,62.60
2022-07-28T00:54:40.155Z,62.70
2022-07-28T00:57:08.895Z,62.80
2022-07-28T00:59:38.982Z,62.80
2022-07-28T01:02:08.042Z,62.80
2022-07-28T01:04:36.935Z,63.10
2022-07-28T01:07:22.688Z,63.20
2022-07-28T01:10:00.750Z,63.10
2022-07-28T01:12:47.189Z,63.10
2022-07-28T01:15:25.788Z,63.40
2022-07-28T01:18:04.271Z,63.30
2022-07-28T01:20:40.143Z,63.10
2022-07-28T01:23:31.340Z,63.20
2022-07-28T01:26:21.076Z,63.20
2022-07-28T01:29:04.753Z,63.50
2022-07-28T01:31:40.989Z,63.50
2022-07-28T01:34:16.764Z,63.80
2022-07-28T01:36:52.216Z,63.60
2022-07-28T01:39:23.500Z,63.70
2022-07-28T01:41:54.815Z,63.60
2022-07-28T01:44:26.259Z,63.80
2022-07-28T01:46:59.094Z,63.90
2022-07-28T01:49:29.510Z,63.90
2022-07-28T01:51:58.977Z,63.90
2022-07-28T01:54:28.946Z,63.90
2022-07-28T01:56:58.785Z,64.00
2022-07-28T01:59:29.582Z,64.00
2022-07-28T02:02:03.859Z,64.30
2022-07-28T02:04:35.227Z,64.30
2022-07-28T02:07:05.534Z,64.40
2022-07-28T02:09:36.294Z,64.40
2022-07-28T02:12:06.224Z,64.30
2022-07-28T02:14:37.448Z,64.60
2022-07-28T02:17:14.447Z,64.70
2022-07-28T02:19:46.704Z,64.60
2022-07-28T02:22:16.502Z,64.60
2022-07-28T02:24:47.191Z,64.70
2022-07-28T02:27:23.371Z,64.90
2022-07-28T02:29:58.857Z,65.20
2022-07-28T02:32:40.850Z,65.00
2022-07-28T02:35:13.548Z,64.90
2022-07-28T02:37:51.494Z,65.20
2022-07-28T02:40:22.971Z,65.10
2022-07-28T02:42:53.790Z,64.70
2022-07-28T02:45:27.557Z,64.90
2022-07-28T02:48:02.819Z,64.40
2022-07-28T02:50:31.615Z,64.70
2022-07-28T02:53:15.540Z,64.70
2022-07-28T02:55:48.335Z,64.80
2022-07-28T02:58:18.068Z,64.10
2022-07-28T03:00:47.677Z,64.30
2022-07-28T03:03:18.756Z,64.50
2022-07-28T03:05:48.312Z,65.00
2022-07-28T03:08:18.635Z,64.90
2022-07-28T03:10:47.552Z,64.90
2022-07-28T03:13:16.214Z,64.60
2022-07-28T03:15:44.975Z,64.40
2022-07-28T03:18:13.762Z,64.40
2022-07-28T03:20:43.826Z,64.60
2022-07-28T03:23:12.509Z,64.60
2022-07-28T03:25:45.868Z,64.60
2022-07-28T03:28:19.590Z,64.70
2022-07-28T03:30:57.295Z,64.70
2022-07-28T03:33:26.488Z,65.10
2022-07-28T03:35:59.697Z,64.70
2022-07-28T03:38:35.490Z,64.90
2022-07-28T03:41:05.372Z,64.70
2022-07-28T03:43:35.661Z,64.70
2022-07-28T03:46:06.592Z,64.80
2022-07-28T03:48:37.483Z,65.40
2022-07-28T03:51:07.608Z,64.10
2022-07-28T03:53:36.549Z,64.40
2022-07-28T03:56:05.965Z,64.40
2022-07-28T03:58:34.748Z,64.30
2022-07-28T04:01:03.447Z,64.40
2022-07-28T04:03:36.609Z,64.50
2022-07-28T04:06:14.003Z,64.60
2022-07-28T04:08:43.225Z,64.50
2022-07-28T04:11:11.924Z,64.40
2022-07-28T04:13:40.687Z,64.40
2022-07-28T04:16:09.436Z,64.70
2022-07-28T04:18:38.207Z,64.60
2022-07-28T04:21:08.528Z,64.90
2022-07-28T04:23:38.569Z,65.00
2022-07-28T04:26:07.527Z,65.30
2022-07-28T04:28:36.183Z,65.30
2022-07-28T04:31:04.953Z,65.20
2022-07-28T04:33:33.686Z,65.30
2022-07-28T04:36:02.790Z,65.50
2022-07-28T04:38:31.500Z,65.40
2022-07-28T04:41:01.559Z,65.40
2022-07-28T04:43:30.243Z,65.40
2022-07-28T04:45:59.936Z,65.60
2022-07-28T04:48:28.573Z,65.60
2022-07-28T04:50:57.389Z,65.60
2022-07-28T04:53:26.013Z,65.50
2022-07-28T04:55:57.136Z,65.40
2022-07-28T04:58:27.878Z,65.60
2022-07-28T05:00:59.710Z,65.70
2022-07-28T05:03:31.610Z,65.60
2022-07-28T05:06:05.082Z,65.70
2022-07-28T05:08:33.737Z,65.90
2022-07-28T05:11:02.503Z,65.80
2022-07-28T05:13:34.247Z,66.00
2022-07-28T05:16:03.819Z,65.90
2022-07-28T05:18:32.585Z,65.80
2022-07-28T05:21:01.252Z,65.80
2022-07-28T05:23:30.025Z,65.80
2022-07-28T05:25:58.819Z,65.80
2022-07-28T05:28:27.526Z,66.10
2022-07-28T05:30:57.879Z,66.00
2022-07-28T05:33:29.042Z,66.30
2022-07-28T05:36:00.762Z,66.20
2022-07-28T05:38:30.429Z,66.10
2022-07-28T05:40:59.209Z,66.20
2022-07-28T05:43:27.807Z,66.40
2022-07-28T05:45:57.938Z,66.40
2022-07-28T05:48:26.686Z,66.70
2022-07-28T05:50:55.533Z,66.90
2022-07-28T05:53:24.701Z,66.80
2022-07-28T05:55:59.579Z,66.80
2022-07-28T05:58:30.583Z,67.00
2022-07-28T06:01:02.611Z,67.00
2022-07-28T06:03:38.447Z,67.30
2022-07-28T06:06:16.105Z,67.10
2022-07-28T06:08:47.805Z,66.90
2022-07-28T06:11:22.846Z,67.10
2022-07-28T06:13:53.132Z,67.20
2022-07-28T06:16:24.004Z,67.40
2022-07-28T06:18:53.255Z,67.30
2022-07-28T06:21:24.495Z,67.30
2022-07-28T06:23:53.293Z,67.80
2022-07-28T06:26:23.837Z,67.70
2022-07-28T06:28:53.189Z,67.50
2022-07-28T06:31:23.277Z,67.70
2022-07-28T06:33:51.965Z,67.90
2022-07-28T06:36:20.957Z,67.80
2022-07-28T06:38:49.696Z,67.70
2022-07-28T06:41:18.420Z,67.60
2022-07-28T06:43:47.081Z,67.80
2022-07-28T06:46:19.413Z,67.70
2022-07-28T06:48:49.735Z,67.80
2022-07-28T06:51:20.198Z,68.10
2022-07-28T06:53:49.499Z,68.40
2022-07-28T06:56:21.603Z,68.30
2022-07-28T06:58:52.255Z,68.60
2022-07-28T07:01:21.118Z,68.80
2022-07-28T07:03:51.411Z,68.80
2022-07-28T07:06:20.178Z,68.80
2022-07-28T07:08:48.964Z,68.80
2022-07-28T07:11:17.686Z,69.30
2022-07-28T07:13:46.390Z,69.20
2022-07-28T07:16:15.095Z,69.10
2022-07-28T07:18:43.816Z,69.10
2022-07-28T07:21:13.874Z,69.50
2022-07-28T07:23:42.545Z,70.10
2022-07-28T07:26:11.194Z,69.10
2022-07-28T07:28:41.843Z,68.80
2022-07-28T07:31:10.555Z,69.10
2022-07-28T07:33:39.255Z,68.90
2022-07-28T07:36:08.404Z,68.80
2022-07-28T07:38:38.864Z,68.80
2022-07-28T07:41:07.771Z,68.60
2022-07-28T07:43:36.479Z,68.60
2022-07-28T07:46:05.274Z,68.20
2022-07-28T07:48:34.158Z,68.10
2022-07-28T07:51:02.868Z,67.80
2022-07-28T07:53:31.586Z,68.00
2022-07-28T07:56:01.778Z,67.90
2022-07-28T07:58:30.620Z,67.90
2022-07-28T08:00:59.255Z,68.00
2022-07-28T08:03:27.889Z,68.00
2022-07-28T08:05:57.766Z,68.00
2022-07-28T08:08:26.490Z,68.30
2022-07-28T08:10:55.156Z,67.80
2022-07-28T08:13:25.240Z,67.50
2022-07-28T08:15:54.151Z,67.90
2022-07-28T08:18:22.934Z,67.70
2022-07-28T08:20:51.576Z,67.40
2022-07-28T08:23:25.835Z,67.80
2022-07-28T08:25:55.224Z,67.80
2022-07-28T08:28:25.314Z,67.70
2022-07-28T08:30:54.055Z,67.70
2022-07-28T08:33:22.772Z,68.20
2022-07-28T08:35:51.737Z,68.10
2022-07-28T08:38:20.440Z,67.90
2022-07-28T08:40:52.978Z,67.70
2022-07-28T08:43:35.352Z,67.70
2022-07-28T08:46:07.185Z,67.80
2022-07-28T08:48:38.408Z,67.90
2022-07-28T08:51:11.199Z,67.80
2022-07-28T08:53:42.172Z,67.90
2022-07-28T08:56:16.303Z,68.20
2022-07-28T08:58:46.351Z,68.40
2022-07-28T09:01:15.067Z,68.50
2022-07-28T09:03:44.272Z,68.70
2022-07-28T09:06:13.304Z,68.00
2022-07-28T09:08:43.636Z,67.70
2022-07-28T09:11:12.497Z,67.30
2022-07-28T09:13:41.236Z,67.10
2022-07-28T09:16:11.727Z,67.20
2022-07-28T09:18:40.895Z,67.00
2022-07-28T09:21:09.606Z,66.70
2022-07-28T09:23:46.257Z,66.00
2022-07-28T09:26:15.330Z,65.50
2022-07-28T09:28:52.864Z,65.30
2022-07-28T09:31:24.832Z,64.80
2022-07-28T09:34:00.930Z,64.70
2022-07-28T09:36:30.905Z,64.30
2022-07-28T09:38:59.869Z,64.10
2022-07-28T09:41:28.561Z,64.00
2022-07-28T09:43:57.357Z,64.60
2022-07-28T09:46:30.695Z,64.00
2022-07-28T09:49:02.532Z,63.40
2022-07-28T09:51:33.538Z,63.90
2022-07-28T09:54:12.724Z,63.40
2022-07-28T09:56:44.554Z,63.30
2022-07-28T09:59:15.097Z,63.30
2022-07-28T10:01:58.335Z,63.60
2022-07-28T10:04:37.927Z,63.00
2022-07-28T10:07:10.024Z,62.70
2022-07-28T10:09:40.147Z,62.00
2022-07-28T10:12:20.701Z,62.00
2022-07-28T10:14:51.994Z,62.00
2022-07-28T10:17:27.903Z,62.30
2022-07-28T10:19:58.887Z,61.60
2022-07-28T10:22:32.145Z,61.70
2022-07-28T10:25:04.135Z,62.00
2022-07-28T10:27:34.479Z,61.30
2022-07-28T10:30:06.867Z,61.00
2022-07-28T10:32:42.791Z,60.60
2022-07-28T10:35:14.069Z,60.50
2022-07-28T10:37:53.242Z,60.50
2022-07-28T10:40:29.956Z,60.40
2022-07-28T10:42:58.824Z,60.70
2022-07-28T10:45:47.865Z,60.40
2022-07-28T10:48:20.584Z,60.00
2022-07-28T10:50:53.496Z,59.70
2022-07-28T10:53:35.392Z,60.40
2022-07-28T10:56:14.525Z,60.10
2022-07-28T10:59:04.926Z,59.70
2022-07-28T11:01:48.255Z,59.40
2022-07-28T11:05:01.915Z,59.10
2022-07-28T11:07:40.830Z,59.60
2022-07-28T11:10:18.022Z,59.00
2022-07-28T11:12:48.263Z,59.10
2022-07-28T11:15:35.801Z,58.70
2022-07-28T11:18:09.839Z,59.10
2022-07-28T11:21:11.600Z,58.70
2022-07-28T11:23:57.498Z,58.90
2022-07-28T11:26:39.217Z,58.90
2022-07-28T11:29:23.580Z,58.20
2022-07-28T11:32:07.727Z,58.40
2022-07-28T11:35:10.254Z,58.10
2022-07-28T11:38:12.954Z,59.10
2022-07-28T11:40:44.467Z,58.00
2022-07-28T11:43:38.888Z,58.70
2022-07-28T11:46:25.372Z,58.50
2022-07-28T11:49:29.720Z,58.60
2022-07-28T11:52:24.397Z,57.90
2022-07-28T11:54:58.526Z,57.90
2022-07-28T11:57:29.438Z,57.70
2022-07-28T12:00:04.143Z,57.50
2022-07-28T12:02:36.239Z,58.10
2022-07-28T12:05:14.524Z,57.40
2022-07-28T12:07:50.178Z,56.50
2022-07-28T12:10:54.040Z,56.00
2022-07-28T12:13:29.196Z,56.20
2022-07-28T12:15:58.296Z,56.10
2022-07-28T12:18:29.201Z,56.20
2022-07-28T12:21:04.587Z,55.90
2022-07-28T12:23:49.551Z,56.50
2022-07-28T12:26:41.038Z,56.20
2022-07-28T12:29:13.370Z,55.70
2022-07-28T12:31:55.613Z,56.00
2022-07-28T12:34:28.642Z,55.50
2022-07-28T12:37:02.197Z,55.10
2022-07-28T12:39:32.534Z,55.30
2022-07-28T12:42:05.392Z,55.60
2022-07-28T12:44:39.086Z,55.40
2022-07-28T12:47:10.914Z,55.40
2022-07-28T12:49:41.179Z,55.40
2022-07-28T12:52:18.118Z,55.20
2022-07-28T12:54:54.384Z,54.40
2022-07-28T12:57:49.859Z,54.50
2022-07-28T13:00:24.650Z,54.30
2022-07-28T13:02:57.655Z,54.00
2022-07-28T13:05:54.804Z,54.10
2022-07-28T13:08:24.378Z,53.20
2022-07-28T13:10:57.433Z,53.70
2022-07-28T13:13:29.371Z,53.70
2022-07-28T13:16:15.695Z,53.70
2022-07-28T13:18:46.498Z,53.50
2022-07-28T13:21:16.723Z,53.70
2022-07-28T13:23:45.866Z,53.70
2022-07-28T13:26:14.569Z,53.10
2022-07-28T13:28:44.623Z,52.80
2022-07-28T13:31:13.506Z,52.70
2022-07-28T13:33:42.250Z,53.00
2022-07-28T13:36:11.124Z,53.60
2022-07-28T13:38:40.477Z,53.10
2022-07-28T13:41:09.181Z,52.60
2022-07-28T13:43:38.061Z,52.10
2022-07-28T13:46:08.593Z,52.70
2022-07-28T13:48:57.618Z,52.10
2022-07-28T13:51:26.889Z,52.30
2022-07-28T13:53:56.468Z,52.40
2022-07-28T13:56:25.741Z,52.20
2022-07-28T13:58:54.408Z,52.50
2022-07-28T14:01:25.326Z,51.70
2022-07-28T14:03:58.365Z,51.10
2022-07-28T14:06:27.651Z,51.20
2022-07-28T14:08:56.889Z,51.30
2022-07-28T14:11:25.796Z,51.60
2022-07-28T14:13:54.831Z,51.50
2022-07-28T14:16:25.699Z,51.50
2022-07-28T14:18:54.873Z,51.20
2022-07-28T14:21:23.786Z,51.80
2022-07-28T14:23:52.532Z,51.20
2022-07-28T14:26:35.594Z,51.00
2022-07-28T14:29:11.358Z,50.80
2022-07-28T14:31:41.995Z,50.60
2022-07-28T14:34:10.942Z,51.70
2022-07-28T14:36:40.043Z,52.00
2022-07-28T14:39:12.395Z,51.90
2022-07-28T14:41:42.731Z,51.40
2022-07-28T14:44:15.384Z,51.10
2022-07-28T14:46:45.801Z,51.10
2022-07-28T14:49:14.599Z,51.20
2022-07-28T14:51:44.900Z,51.50
2022-07-28T14:54:14.108Z,51.00
2022-07-28T14:56:42.941Z,50.70
2022-07-28T14:59:11.759Z,50.80
2022-07-28T15:01:40.538Z,50.90
2022-07-28T15:04:12.677Z,50.90
2022-07-28T15:06:41.958Z,50.50
2022-07-28T15:09:10.742Z,50.70
2022-07-28T15:11:41.257Z,50.90
2022-07-28T15:14:10.072Z,50.90
2022-07-28T15:16:40.061Z,50.70
2022-07-28T15:19:10.636Z,50.50
2022-07-28T15:21:40.708Z,50.70
2022-07-28T15:24:10.681Z,51.10
2022-07-28T15:26:39.432Z,51.20
2022-07-28T15:29:08.857Z,50.90
2022-07-28T15:31:37.860Z,50.80
2022-07-28T15:34:09.738Z,50.90
2022-07-28T15:36:39.175Z,51.00
2022-07-28T15:39:09.362Z,51.20
2022-07-28T15:41:38.071Z,51.00
2022-07-28T15:44:07.922Z,51.00
2022-07-28T15:46:36.638Z,51.00
2022-07-28T15:49:10.503Z,50.90
2022-07-28T15:51:40.919Z,50.70
2022-07-28T15:54:10.257Z,50.80
2022-07-28T15:56:39.162Z,50.90
2022-07-28T15:59:09.235Z,50.80
2022-07-28T16:01:44.999Z,50.70
2022-07-28T16:04:16.206Z,50.90
2022-07-28T16:07:02.629Z,50.80
2022-07-28T16:09:45.574Z,51.10
2022-07-28T16:12:16.422Z,50.50
2022-07-28T16:14:45.272Z,50.70
2022-07-28T16:17:14.134Z,50.40
2022-07-28T16:19:50.009Z,50.50
2022-07-28T16:22:20.120Z,49.90
2022-07-28T16:24:50.946Z,50.20
2022-07-28T16:27:19.757Z,50.10
2022-07-28T16:29:49.570Z,50.30
2022-07-28T16:32:18.414Z,50.40
2022-07-28T16:34:49.812Z,50.30
2022-07-28T16:37:19.844Z,50.50
2022-07-28T16:39:49.650Z,50.30
2022-07-28T16:42:18.613Z,50.50
2022-07-28T16:44:47.986Z,50.00
2022-07-28T16:47:17.199Z,50.80
2022-07-28T16:49:46.456Z,50.10
2022-07-28T16:52:16.972Z,49.90
2022-07-28T16:54:45.916Z,49.80
2022-07-28T16:57:16.484Z,49.60
2022-07-28T16:59:48.515Z,49.80
2022-07-28T17:02:19.229Z,49.50
2022-07-28T17:04:48.921Z,49.40
2022-07-28T17:07:19.626Z,49.60
2022-07-28T17:09:48.335Z,49.10
2022-07-28T17:12:17.019Z,49.20
2022-07-28T17:14:45.794Z,49.30
2022-07-28T17:17:14.509Z,49.40
2022-07-28T17:19:46.540Z,49.00
2022-07-28T17:22:16.384Z,49.30
2022-07-28T17:24:48.431Z,49.50
2022-07-28T17:27:37.871Z,49.20
2022-07-28T17:30:07.426Z,49.00
2022-07-28T17:32:36.172Z,49.20
2022-07-28T17:35:05.514Z,48.90
2022-07-28T17:37:34.235Z,48.80
2022-07-28T17:40:04.832Z,48.90
2022-07-28T17:42:34.366Z,48.80
2022-07-28T17:45:03.085Z,48.90
2022-07-28T17:47:35.986Z,49.10
2022-07-28T17:50:07.376Z,49.00
2022-07-28T17:52:36.317Z,48.90
2022-07-28T17:55:24.921Z,48.70
2022-07-28T17:57:56.334Z,49.10
2022-07-28T18:00:25.119Z,49.10
2022-07-28T18:02:53.831Z,49.10
2022-07-28T18:05:22.567Z,48.90
2022-07-28T18:07:54.798Z,49.10
2022-07-28T18:10:27.695Z,49.00
2022-07-28T18:12:56.337Z,49.20
2022-07-28T18:15:25.941Z,49.10
2022-07-28T18:17:56.106Z,49.10
2022-07-28T18:20:25.605Z,49.20
2022-07-28T18:22:54.593Z,49.30
2022-07-28T18:25:23.278Z,49.40
2022-07-28T18:27:53.883Z,49.40
2022-07-28T18:30:23.236Z,49.40
2022-07-28T18:32:52.627Z,49.40
2022-07-28T18:35:22.567Z,49.30
2022-07-28T18:37:51.923Z,49.60
2022-07-28T18:40:21.956Z,49.40
2022-07-28T18:42:52.940Z,49.50
2022-07-28T18:45:21.891Z,49.70
2022-07-28T18:47:50.552Z,49.70
2022-07-28T18:50:30.660Z,50.00
2022-07-28T18:53:00.972Z,50.00
2022-07-28T18:55:29.825Z,49.90
2022-07-28T18:57:59.850Z,50.20
2022-07-28T19:00:28.863Z,50.20
2022-07-28T19:02:57.746Z,50.50
2022-07-28T19:05:26.782Z,50.50
2022-07-28T19:08:05.516Z,50.30
2022-07-28T19:10:34.337Z,50.40
2022-07-28T19:13:04.710Z,50.30
2022-07-28T19:15:38.160Z,50.50
2022-07-28T19:18:10.536Z,50.30
2022-07-28T19:20:40.885Z,50.40
2022-07-28T19:23:09.602Z,51.20
2022-07-28T19:25:39.833Z,50.60
2022-07-28T19:28:09.994Z,50.50
2022-07-28T19:30:38.780Z,50.70
2022-07-28T19:33:07.461Z,50.70
2022-07-28T19:35:36.331Z,50.80
2022-07-28T19:38:05.026Z,50.70
2022-07-28T19:40:33.777Z,50.60
2022-07-28T19:43:08.247Z,50.30
2022-07-28T19:45:42.398Z,50.70
2022-07-28T19:48:18.201Z,50.70
2022-07-28T19:50:53.686Z,50.50
2022-07-28T19:53:32.380Z,50.40
2022-07-28T19:56:18.042Z,50.20
2022-07-28T19:58:54.930Z,50.40
2022-07-28T20:01:39.021Z,50.30
2022-07-28T20:04:24.613Z,51.10
2022-07-28T20:07:15.481Z,50.50
2022-07-28T20:10:04.123Z,50.60
2022-07-28T20:12:43.403Z,50.80
2022-07-28T20:15:25.865Z,50.70
2022-07-28T20:18:07.911Z,51.00
2022-07-28T20:20:50.668Z,51.20
2022-07-28T20:23:33.083Z,51.40
2022-07-28T20:26:27.177Z,51.50
2022-07-28T20:29:10.590Z,51.60
2022-07-28T20:32:09.920Z,51.70
2022-07-28T20:35:07.374Z,51.80
2022-07-28T20:38:14.713Z,51.80
2022-07-28T20:40:52.589Z,52.20
2022-07-28T20:43:23.807Z,52.10
2022-07-28T20:46:10.423Z,52.20
2022-07-28T20:48:54.467Z,52.50
2022-07-28T20:51:40.089Z,52.60
2022-07-28T20:54:35.570Z,52.60
2022-07-28T20:57:19.396Z,52.60
2022-07-28T20:59:53.816Z,52.60
2022-07-28T21:02:24.827Z,52.70
2022-07-28T21:04:56.321Z,52.80
2022-07-28T21:08:00.682Z,52.80
2022-07-28T21:10:38.442Z,52.80
2022-07-28T21:13:22.422Z,52.70
2022-07-28T21:16:00.323Z,52.90
2022-07-28T21:18:32.837Z,53.00
2022-07-28T21:21:01.856Z,53.20
2022-07-28T21:23:31.952Z,53.10
2022-07-28T21:26:00.667Z,53.30
2022-07-28T21:28:46.653Z,53.30
2022-07-28T21:31:15.304Z,53.40
2022-07-28T21:33:43.945Z,53.40
2022-07-28T21:36:12.598Z,53.50
2022-07-28T21:38:42.883Z,53.50
2022-07-28T21:41:11.694Z,53.60
2022-07-28T21:43:40.585Z,53.60
2022-07-28T21:46:09.355Z,53.60
2022-07-28T21:48:38.071Z,53.70
2022-07-28T21:51:18.217Z,54.20
2022-07-28T21:53:52.924Z,53.70
2022-07-28T21:56:21.793Z,53.80
2022-07-28T21:58:51.125Z,53.70
2022-07-28T22:01:19.950Z,53.80
2022-07-28T22:03:48.711Z,53.90
2022-07-28T22:06:17.503Z,53.90
2022-07-28T22:08:46.225Z,54.00
2022-07-28T22:11:16.310Z,54.00
2022-07-28T22:13:45.138Z,54.10
2022-07-28T22:16:13.863Z,54.10
2022-07-28T22:18:42.725Z,54.00
2022-07-28T22:21:11.441Z,54.00
2022-07-28T22:23:42.081Z,53.90
2022-07-28T22:26:10.823Z,53.80
2022-07-28T22:28:40.873Z,54.10
2022-07-28T22:31:10.339Z,53.90
2022-07-28T22:33:39.888Z,53.70
2022-07-28T22:36:09.651Z,53.70
2022-07-28T22:38:38.711Z,53.80
2022-07-28T22:41:07.396Z,53.70
2022-07-28T22:43:36.111Z,53.80
2022-07-28T22:46:06.225Z,53.60
2022-07-28T22:48:35.009Z,53.60
2022-07-28T22:51:03.835Z,53.60
2022-07-28T22:53:32.524Z,53.80
2022-07-28T22:56:01.387Z,54.00
2022-07-28T22:58:30.030Z,53.90
2022-07-28T23:00:59.408Z,54.10
2022-07-28T23:03:31.073Z,54.30
2022-07-28T23:06:00.707Z,54.60
2022-07-28T23:08:29.789Z,54.70
2022-07-28T23:10:58.535Z,54.70
2022-07-28T23:13:27.211Z,54.90
2022-07-28T23:15:56.101Z,55.00
2022-07-28T23:18:24.786Z,55.00
2022-07-28T23:20:55.029Z,54.90
2022-07-28T23:23:23.844Z,54.90
2022-07-28T23:25:52.561Z,54.60
2022-07-28T23:28:21.224Z,54.70
2022-07-28T23:30:52.068Z,54.60
2022-07-28T23:33:56.813Z,54.80
2022-07-28T23:36:25.983Z,55.00
2022-07-28T23:38:56.997Z,55.20
2022-07-28T23:41:26.389Z,55.10
2022-07-28T23:43:55.410Z,55.10
2022-07-28T23:46:24.479Z,55.10
2022-07-28T23:48:53.248Z,55.20
2022-07-28T23:51:47.195Z,55.50
2022-07-28T23:54:14.287Z,56.00
2022-07-28T23:56:43.878Z,55.50
2022-07-28T23:59:14.347Z,55.60
